Time;durP1;ratioP1;P1;durP2;ratioP2;P2;SDS_P1;SDS_P2;PMS_P1;PMS_P2;Temp;Humidity;BMP_temperature;BMP_pressure;BME280_temperature;BME280_humidity;BME280_pressure;Samples;Min_cycle;Max_cycle;Signal;HPM_P1;HPM_P2
2023/05/02 00:00:12;;;;;;;8.07;5.93;;;13.60;1.00;;;;;;6306607;22;20178;-76
2023/05/02 00:25:54;;;;;;;8.10;7.17;;;;;;;;;;6303264;22;20426;-73
2023/05/02 00:36:17;;;;;;;6.87;6.17;;;13.10;1.00;;;;;;6300415;22;20432;-81
2023/05/02 00:43:53;;;;;;;7.73;6.70;;;;;;;;;;6303244;22;20859;-76
2023/05/02 00:46:19;;;;;;;9.50;6.47;;;;;;;;;;6306880;22;20369;-77
2023/05/02 00:48:45;;;;;;;7.60;6.63;;;12.90;1.00;;;;;;6333769;22;20169;-77
2023/05/02 00:51:12;;;;;;;7.20;6.47;;;12.80;1.00;;;;;;6334308;22;20213;-76
2023/05/02 00:53:38;;;;;;;9.23;6.43;;;12.80;1.00;;;;;;6334089;22;20542;-77
2023/05/02 00:56:04;;;;;;;9.37;6.83;;;12.80;1.00;;;;;;6334426;22;20373;-77
2023/05/02 01:06:16;;;;;;;9.80;6.70;;;;;;;;;;6335006;22;20788;-77
2023/05/02 01:16:30;;;;;;;8.93;7.70;;;12.30;1.00;;;;;;6322546;22;20834;-78
2023/05/02 01:29:16;;;;;;;8.67;7.07;;;12.00;1.00;;;;;;6302561;22;20417;-76
2023/05/02 01:31:45;;;;;;;9.43;7.43;;;11.80;1.00;;;;;;6303388;22;20374;-76
2023/05/02 01:34:11;;;;;;;11.03;6.87;;;11.90;1.00;;;;;;6302303;22;20358;-77
2023/05/02 01:41:53;;;;;;;7.37;6.50;;;11.50;1.00;;;;;;6321755;22;20432;-79
2023/05/02 01:46:56;;;;;;;10.00;7.17;;;11.50;1.00;;;;;;6305499;22;20493;-78
2023/05/02 01:49:24;;;;;;;7.93;6.80;;;11.40;1.00;;;;;;6334101;22;20419;-79
2023/05/02 01:51:51;;;;;;;8.70;7.23;;;11.50;1.00;;;;;;6333656;22;20365;-73
2023/05/02 02:02:25;;;;;;;9.43;7.77;;;11.20;1.00;;;;;;6293975;22;20370;-78
2023/05/02 02:04:53;;;;;;;8.23;6.63;;;11.10;1.00;;;;;;6334422;22;20353;-76
2023/05/02 02:07:19;;;;;;;7.67;6.87;;;11.10;1.00;;;;;;6306176;22;20373;-76
2023/05/02 02:09:45;;;;;;;6.87;6.10;;;11.00;1.00;;;;;;6334200;22;20424;-77
2023/05/02 02:30:33;;;;;;;8.30;6.27;;;;;;;;;;6322688;22;20601;-80
2023/05/02 02:40:56;;;;;;;10.00;6.37;;;10.80;1.00;;;;;;6335141;22;20446;-77
2023/05/02 02:43:40;;;;;;;8.63;6.00;;;10.60;1.00;;;;;;6335347;22;20423;-75
2023/05/02 02:46:47;;;;;;;7.43;6.03;;;10.70;1.00;;;;;;6334923;22;20354;-78
2023/05/02 03:38:24;;;;;;;7.77;6.13;;;;;;;;;;6307867;22;20436;-76
2023/05/02 03:40:50;;;;;;;7.60;6.40;;;10.10;1.00;;;;;;6306588;22;20410;-77
2023/05/02 03:51:03;;;;;;;11.80;6.50;;;9.80;1.00;;;;;;6327530;22;20436;-79
2023/05/02 03:53:32;;;;;;;11.07;6.20;;;9.80;1.00;;;;;;6307270;22;20381;-77
2023/05/02 03:55:58;;;;;;;8.70;6.37;;;9.80;1.00;;;;;;6334352;22;20357;-78
2023/05/02 03:58:24;;;;;;;7.67;6.37;;;9.80;1.00;;;;;;6334373;22;20388;-75
2023/05/02 04:00:51;;;;;;;8.43;6.20;;;9.70;1.00;;;;;;6307308;22;20181;-77
2023/05/02 04:23:59;;;;;;;10.00;6.70;;;;;;;;;;6311668;22;20444;-77
2023/05/02 04:36:46;;;;;;;8.00;6.20;;;;;;;;;;6302697;22;20428;-77
2023/05/02 04:59:55;;;;;;;9.63;6.77;;;;;;;;;;6322073;22;20436;-76
2023/05/02 05:12:43;;;;;;;9.37;7.27;;;;;;;;;;6301444;22;20436;-78
2023/05/02 05:15:09;;;;;;;13.50;9.87;;;10.70;1.00;;;;;;6335070;22;20801;-78
2023/05/02 05:17:35;;;;;;;14.43;9.00;;;10.80;1.00;;;;;;6334491;22;20422;-78
2023/05/02 05:20:00;;;;;;;10.37;7.87;;;10.80;1.00;;;;;;6333801;22;20166;-79
2023/05/02 05:22:26;;;;;;;15.63;7.70;;;10.80;1.00;;;;;;6333977;22;20365;-77
2023/05/02 05:24:52;;;;;;;9.50;6.90;;;10.90;1.00;;;;;;6305695;22;20154;-78
2023/05/02 05:27:21;;;;;;;9.13;7.10;;;10.90;1.00;;;;;;6305682;22;20155;-75
2023/05/02 05:29:47;;;;;;;8.57;7.13;;;11.00;1.00;;;;;;6333459;22;20790;-76
2023/05/02 05:39:59;;;;;;;9.53;7.90;;;;;;;;;;6312951;22;21452;-79
2023/05/02 05:45:01;;;;;;;9.87;7.40;;;;;;;;;;6316403;22;20464;-77
2023/05/02 05:47:27;;;;;;;9.53;7.47;;;11.40;1.00;;;;;;6335416;22;20444;-77
2023/05/02 05:49:53;;;;;;;9.27;8.23;;;11.30;1.00;;;;;;6335681;22;20436;-76
2023/05/02 05:52:19;;;;;;;10.60;8.63;;;11.30;1.00;;;;;;6334814;22;20142;-77
2023/05/02 05:54:45;;;;;;;10.00;8.47;;;11.30;1.00;;;;;;6335189;22;20449;-76
2023/05/02 05:57:10;;;;;;;12.00;9.30;;;11.30;1.00;;;;;;6307442;22;20273;-77
2023/05/02 05:59:36;;;;;;;12.00;9.80;;;11.40;1.00;;;;;;6333498;22;20163;-76
2023/05/02 06:02:01;;;;;;;11.13;9.00;;;11.50;1.00;;;;;;6333039;22;20222;-77
2023/05/02 06:04:33;;;;;;;14.53;10.57;;;11.70;1.00;;;;;;6308039;22;20146;-78
2023/05/02 06:07:04;;;;;;;12.77;10.03;;;11.90;1.00;;;;;;6315266;22;20191;-77
2023/05/02 06:09:31;;;;;;;12.47;10.20;;;12.00;1.00;;;;;;6331870;22;20455;-77
2023/05/02 06:11:58;;;;;;;13.70;10.60;;;;;;;;;;6335089;22;20452;-76
2023/05/02 06:14:24;;;;;;;13.40;11.80;;;;;;;;;;6302905;22;20852;-77
2023/05/02 06:16:50;;;;;;;16.03;12.00;;;;;;;;;;6339830;22;20474;-77
2023/05/02 06:19:16;;;;;;;17.53;12.80;;;;;;;;;;6337495;22;20463;-77
2023/05/02 06:21:41;;;;;;;16.73;13.57;;;12.80;1.00;;;;;;6343124;22;20476;-80
2023/05/02 06:24:07;;;;;;;15.93;11.93;;;;;;;;;;6309757;22;20460;-78
2023/05/02 06:26:33;;;;;;;16.70;13.67;;;;;;;;;;6340195;22;20198;-78
2023/05/02 06:31:44;;;;;;;18.50;14.20;;;;;;;;;;6325935;22;20444;-78
2023/05/02 06:34:10;;;;;;;18.83;14.13;;;;;;;;;;6309231;22;20803;-77
2023/05/02 06:36:35;;;;;;;19.73;16.20;;;14.10;1.00;;;;;;6339632;22;20644;-80
2023/05/02 06:39:01;;;;;;;19.10;15.57;;;;;;;;;;6332187;22;20531;-75
2023/05/02 06:41:30;;;;;;;22.37;16.10;;;14.30;1.00;;;;;;6338202;22;20503;-78
2023/05/02 06:43:56;;;;;;;22.10;16.70;;;;;;;;;;6328751;22;20198;-80
2023/05/02 06:46:22;;;;;;;25.50;19.07;;;;;;;;;;6337363;22;20465;-80
2023/05/02 06:48:48;;;;;;;25.10;19.20;;;;;;;;;;6308910;22;20452;-78
2023/05/02 06:51:14;;;;;;;29.67;20.87;;;14.60;1.00;;;;;;6307957;22;20178;-78
2023/05/02 06:53:40;;;;;;;25.80;20.10;;;;;;;;;;6331144;22;20198;-75
2023/05/02 07:09:03;;;;;;;28.70;22.43;;;;;;;;;;6335020;22;20443;-77
2023/05/02 07:11:29;;;;;;;30.83;22.70;;;;;;;;;;6335022;22;20795;-77
2023/05/02 07:13:54;;;;;;;32.43;22.70;;;15.80;1.00;;;;;;6306983;22;20787;-78
2023/05/02 07:16:20;;;;;;;34.90;24.87;;;16.00;1.00;;;;;;6335030;22;20404;-78
2023/05/02 07:23:49;;;;;;;39.33;26.07;;;;;;;;;;6329620;22;20459;-79
2023/05/02 07:26:17;;;;;;;39.10;27.07;;;16.20;1.00;;;;;;6335978;22;20361;-79
2023/05/02 07:39:13;;;;;;;39.93;29.17;;;;;;;;;;6340342;22;20963;-80
2023/05/02 07:41:39;;;;;;;41.30;29.80;;;;;;;;;;6334238;22;20512;-82
2023/05/02 07:49:15;;;;;;;41.07;29.90;;;;;;;;;;6335675;22;20440;-79
2023/05/02 07:51:41;;;;;;;40.37;29.90;;;17.70;1.00;;;;;;6335557;22;20369;-81
2023/05/02 07:54:20;;;;;;;42.73;31.23;;;17.70;1.00;;;;;;6335465;22;20218;-78
2023/05/02 07:56:46;;;;;;;47.17;33.30;;;17.90;1.00;;;;;;6335491;22;20229;-78
2023/05/02 07:59:12;;;;;;;43.33;30.20;;;18.10;1.00;;;;;;6308106;22;20416;-78
2023/05/02 08:06:49;;;;;;;46.83;31.60;;;;;;;;;;6302938;22;21520;-78
2023/05/02 08:24:47;;;;;;;42.13;30.50;;;;;;;;;;6321224;22;20454;-80
2023/05/02 08:35:05;;;;;;;34.60;26.70;;;22.50;1.00;;;;;;6320384;22;20454;-79
2023/05/02 08:37:31;;;;;;;30.77;25.07;;;23.20;1.00;;;;;;6308510;22;20570;-79
2023/05/02 08:39:56;;;;;;;29.17;23.67;;;23.70;1.00;;;;;;6335609;22;20392;-77
2023/05/02 08:50:10;;;;;;;30.77;23.93;;;21.30;1.00;;;;;;6320712;22;20446;-79
2023/05/02 09:00:22;;;;;;;32.97;24.07;;;;;;;;;;6327188;22;20976;-79
2023/05/02 09:13:29;;;;;;;35.07;25.23;;;21.80;1.00;;;;;;6317221;22;20625;-79
2023/05/02 09:16:01;;;;;;;32.43;25.13;;;21.70;1.00;;;;;;6336206;22;20368;-79
2023/05/02 09:28:50;;;;;;;37.37;27.23;;;22.10;1.00;;;;;;6326814;22;20439;-79
2023/05/02 09:31:19;;;;;;;33.47;24.90;;;21.80;1.00;;;;;;6334115;22;20415;-79
2023/05/02 09:33:45;;;;;;;33.83;25.37;;;22.00;1.00;;;;;;6334306;22;20364;-79
2023/05/02 09:36:13;;;;;;;34.23;25.03;;;22.80;1.00;;;;;;6334982;22;20376;-80
2023/05/02 09:38:43;;;;;;;32.57;24.50;;;23.30;1.00;;;;;;6307716;22;20782;-79
2023/05/02 09:41:09;;;;;;;33.60;26.27;;;23.50;1.00;;;;;;6335545;22;20375;-80
2023/05/02 09:43:36;;;;;;;38.47;26.70;;;24.80;1.00;;;;;;6334382;22;20368;-79
2023/05/02 09:46:07;;;;;;;38.20;27.40;;;25.90;1.00;;;;;;6334640;22;20368;-80
2023/05/02 09:57:00;;;;;;;38.30;24.47;;;;;;;;;;6297002;22;21473;-80
2023/05/02 09:59:26;;;;;;;31.27;22.27;;;22.20;1.00;;;;;;6334592;22;20393;-81
2023/05/02 10:02:00;;;;;;;28.80;21.30;;;23.10;1.00;;;;;;6334273;22;20356;-79
2023/05/02 10:04:27;;;;;;;26.50;20.50;;;25.20;1.00;;;;;;6306986;22;20240;-80
2023/05/02 10:06:54;;;;;;;23.70;19.23;;;27.10;1.00;;;;;;6306638;22;20703;-79
2023/05/02 10:14:24;;;;;;;18.67;15.73;;;30.20;1.00;;;;;;6335238;22;20166;-80
2023/05/02 10:17:00;;;;;;;18.60;15.95;;;30.50;1.00;;;;;;6334749;22;20162;-81
2023/05/02 10:27:12;;;;;;;19.52;16.30;;;29.40;1.00;;;;;;6301987;22;20158;-79
2023/05/02 10:29:39;;;;;;;20.50;16.17;;;32.60;1.00;;;;;;6336407;22;20272;-79
2023/05/02 10:32:06;;;;;;;18.80;16.10;;;31.90;1.00;;;;;;6307875;22;20150;-79
2023/05/02 10:34:32;;;;;;;18.13;14.82;;;33.70;1.00;;;;;;6336491;22;20142;-80
2023/05/02 10:37:01;;;;;;;22.30;17.73;;;34.90;1.00;;;;;;6337015;22;20172;-77
2023/05/02 10:39:28;;;;;;;23.42;18.50;;;32.70;1.00;;;;;;6337929;22;20694;-79
2023/05/02 10:41:56;;;;;;;27.23;20.05;;;30.00;1.00;;;;;;6337895;22;20146;-78
2023/05/02 11:00:34;;;;;;;29.13;21.80;;;22.70;1.00;;;;;;6308763;22;20420;-79
2023/05/02 11:10:46;;;;;;;27.80;19.17;;;;;;;;;;6330373;22;20810;-79
2023/05/02 11:21:24;;;;;;;24.40;19.10;;;29.60;1.00;;;;;;6305514;22;20458;-77
2023/05/02 11:34:11;;;;;;;22.95;17.23;;;32.20;1.00;;;;;;6333357;22;20224;-79
2023/05/02 11:36:36;;;;;;;18.52;15.30;;;32.80;1.00;;;;;;6336178;22;20583;-79
2023/05/02 11:39:04;;;;;;;19.08;15.73;;;33.00;1.00;;;;;;6336073;22;20547;-79
2023/05/02 11:41:40;;;;;;;18.45;15.32;;;33.40;1.00;;;;;;6335819;22;20353;-79
2023/05/02 11:44:06;;;;;;;17.95;14.57;;;33.50;1.00;;;;;;6336369;22;20168;-77
2023/05/02 11:46:32;;;;;;;20.02;13.77;;;33.00;1.00;;;;;;6308189;22;20158;-77
2023/05/02 11:54:09;;;;;;;14.57;11.70;;;;;;;;;;6305226;22;20208;-79
2023/05/02 11:56:35;;;;;;;13.65;11.70;;;;;;;;;;6338624;22;20137;-79
2023/05/02 12:09:20;;;;;;;12.68;10.05;;;;;;;;;;6306336;22;20186;-82
2023/05/02 12:11:54;;;;;;;14.60;11.02;;;35.50;1.00;;;;;;6304419;22;20171;-81
2023/05/02 12:14:31;;;;;;;12.48;9.90;;;35.60;1.00;;;;;;6305285;22;20127;-77
2023/05/02 12:16:58;;;;;;;13.25;10.73;;;34.80;1.00;;;;;;6304756;22;20135;-79
2023/05/02 12:19:24;;;;;;;11.32;8.93;;;35.20;1.00;;;;;;6276873;22;20177;-77
2023/05/02 12:21:49;;;;;;;12.63;10.13;;;35.60;1.00;;;;;;6277458;22;20150;-78
2023/05/02 12:24:15;;;;;;;11.57;9.40;;;34.80;1.00;;;;;;6276301;22;20161;-79
2023/05/02 12:26:41;;;;;;;11.02;9.13;;;34.60;1.00;;;;;;6276607;22;20270;-77
2023/05/02 12:29:07;;;;;;;10.73;9.40;;;34.90;1.00;;;;;;6304222;22;20166;-80
2023/05/02 12:31:33;;;;;;;11.93;8.93;;;34.80;1.00;;;;;;6304255;22;20678;-78
2023/05/02 12:44:35;;;;;;;9.77;7.95;;;34.10;1.00;;;;;;6305455;22;20201;-79
2023/05/02 12:47:01;;;;;;;9.60;7.38;;;34.20;1.00;;;;;;6308028;22;20202;-78
2023/05/02 12:54:38;;;;;;;8.88;6.90;;;;;;;;;;6298543;22;20197;-80
2023/05/02 12:57:04;;;;;;;8.48;6.15;;;;;;;;;;6335793;22;20692;-80
2023/05/02 13:04:41;;;;;;;9.88;6.90;;;;;;;;;;6285438;22;20642;-79
2023/05/02 13:07:07;;;;;;;9.32;6.88;;;;;;;;;;6280650;22;20150;-79
2023/05/02 13:09:33;;;;;;;8.35;6.68;;;33.20;1.00;;;;;;6281098;22;20171;-80
2023/05/02 13:11:58;;;;;;;9.85;7.35;;;34.00;1.00;;;;;;6280026;22;20212;-78
2023/05/02 13:14:24;;;;;;;13.70;7.25;;;34.60;1.00;;;;;;6308005;22;20599;-79
2023/05/02 13:16:53;;;;;;;9.30;6.38;;;34.20;1.00;;;;;;6308305;22;20181;-79
2023/05/02 13:19:19;;;;;;;7.90;6.07;;;34.30;1.00;;;;;;6306808;22;20163;-80
2023/05/02 13:21:45;;;;;;;7.20;5.60;;;34.60;1.00;;;;;;6304214;22;20609;-82
2023/05/02 13:24:10;;;;;;;7.35;5.90;;;35.10;1.00;;;;;;6303990;22;20347;-80
2023/05/02 13:26:36;;;;;;;7.45;5.90;;;35.40;1.00;;;;;;6304400;22;20149;-81
2023/05/02 13:34:12;;;;;;;7.45;5.15;;;;;;;;;;6275721;22;20192;-79
2023/05/02 13:36:44;;;;;;;9.00;5.07;;;;;;;;;;6339700;22;20135;-80
2023/05/02 14:12:49;;;;;;;7.88;5.20;;;;;;;;;;6293909;22;20631;-80
2023/05/02 14:15:15;;;;;;;7.80;5.35;;;34.90;1.00;;;;;;6335778;22;20677;-80
2023/05/02 14:17:41;;;;;;;9.27;5.18;;;35.00;1.00;;;;;;6307810;22;20598;-80
2023/05/02 14:20:09;;;;;;;7.28;4.93;;;35.80;1.00;;;;;;6336629;22;20177;-78
2023/05/02 14:22:34;;;;;;;7.45;5.57;;;34.80;1.00;;;;;;6335607;22;20152;-80
2023/05/02 14:25:00;;;;;;;7.00;5.68;;;35.30;1.00;;;;;;6308595;22;20188;-82
2023/05/02 14:45:34;;;;;;;5.78;4.68;;;;;;;;;;6332416;22;20208;-79
2023/05/02 14:55:46;;;;;;;7.95;4.97;;;;;;;;;;6330317;22;20193;-81
2023/05/02 14:58:19;;;;;;;6.88;5.03;;;;;;;;;;6337126;22;20459;-83
2023/05/02 15:00:45;;;;;;;6.40;4.40;;;33.40;1.00;;;;;;6309030;22;20153;-80
2023/05/02 15:03:11;;;;;;;6.65;4.25;;;32.70;1.00;;;;;;6336953;22;20146;-79
2023/05/02 15:05:37;;;;;;;5.68;4.15;;;31.00;1.00;;;;;;6309487;22;20304;-80
2023/05/02 15:08:02;;;;;;;6.50;4.93;;;30.30;1.00;;;;;;6341437;22;20423;-80
2023/05/02 15:10:28;;;;;;;8.70;5.60;;;30.70;1.00;;;;;;6341112;22;20205;-80
2023/05/02 15:12:53;;;;;;;10.05;5.68;;;31.20;1.00;;;;;;6340818;22;20199;-80
2023/05/02 15:30:48;;;;;;;7.30;5.50;;;30.40;1.00;;;;;;6309572;22;20183;-80
2023/05/02 15:33:15;;;;;;;9.68;4.60;;;30.40;1.00;;;;;;6309305;22;20139;-80
2023/05/02 15:35:51;;;;;;;10.13;5.53;;;30.10;1.00;;;;;;6281446;22;20146;-80
2023/05/02 15:48:38;;;;;;;6.40;4.50;;;;;;;;;;6323009;22;20510;-83
2023/05/02 15:51:04;;;;;;;5.80;4.40;;;28.50;1.00;;;;;;6336225;22;20169;-83
2023/05/02 15:53:30;;;;;;;9.20;5.73;;;28.10;1.00;;;;;;6335944;22;20138;-80
2023/05/02 15:55:55;;;;;;;7.70;5.10;;;27.90;1.00;;;;;;6336386;22;20142;-79
2023/05/02 15:58:21;;;;;;;8.97;5.00;;;27.50;1.00;;;;;;6335779;22;20225;-80
2023/05/02 16:00:47;;;;;;;6.60;4.33;;;27.50;1.00;;;;;;6337238;22;20198;-80
2023/05/02 16:18:45;;;;;;;8.20;5.20;;;;;;;;;;6296511;22;20360;-77
2023/05/02 16:21:11;;;;;;;6.70;4.30;;;;;;;;;;6342601;22;20906;-79
2023/05/02 16:28:47;;;;;;;6.40;4.00;;;;;;;;;;6292893;22;21304;-79
2023/05/02 16:31:13;;;;;;;5.83;4.20;;;;;;;;;;6308211;22;20573;-78
2023/05/02 16:41:20;;;;;;;6.27;3.80;;;;;;;;;;6304347;22;20401;-79
2023/05/02 17:15:15;;;;;;;8.60;6.80;;;20.40;1.00;;;;;;6291767;22;21273;31
2023/05/02 17:17:41;;;;;;;8.90;5.07;;;20.30;1.00;;;;;;6243115;23;20844;-80
2023/05/02 17:20:07;;;;;;;6.90;5.17;;;20.30;1.00;;;;;;6267063;22;20460;-80
2023/05/02 17:30:19;;;;;;;8.77;5.93;;;;;;;;;;6320573;22;20439;-80
2023/05/02 17:32:45;;;;;;;9.30;5.87;;;19.80;1.00;;;;;;6311297;22;20387;-80
2023/05/02 17:35:10;;;;;;;7.50;5.37;;;19.70;1.00;;;;;;6339846;22;20368;-82
2023/05/02 17:37:37;;;;;;;7.53;5.70;;;19.60;1.00;;;;;;6336384;22;20127;-77
2023/05/02 17:42:39;;;;;;;9.52;5.93;;;;;;;;;;6303220;22;20410;-77
2023/05/02 17:45:06;;;;;;;9.73;6.70;;;;;;;;;;6278739;22;21253;-77
2023/05/02 17:50:04;;;;;;;9.50;6.30;;;;;;;;;;6305581;22;20432;-81
2023/05/02 17:54:58;;;;;;;8.60;6.13;;;;;;;;;;6303567;22;20449;-82
2023/05/02 18:20:42;;;;;;;10.50;7.00;;;;;;;;;;6272669;22;20505;-81
2023/05/02 18:33:30;;;;;;;7.93;6.17;;;;;;;;;;6283599;22;20445;-78
2023/05/02 18:35:55;;;;;;;8.00;6.70;;;;;;;;;;6274385;22;20369;-78
2023/05/02 18:40:57;;;;;;;9.80;6.40;;;;;;;;;;6284527;22;20210;-77
2023/05/02 18:43:22;;;;;;;8.50;6.93;;;16.90;1.00;;;;;;6301494;22;20354;-77
2023/05/02 18:45:48;;;;;;;10.90;6.60;;;16.80;1.00;;;;;;6300275;22;20234;-78
2023/05/02 18:56:00;;;;;;;9.00;5.13;;;;;;;;;;6329422;22;20469;-78
2023/05/02 18:58:25;;;;;;;8.73;5.27;;;16.20;1.00;;;;;;6334778;22;20668;-79
2023/05/02 19:00:51;;;;;;;7.17;5.60;;;16.10;1.00;;;;;;6335972;22;20153;-78
2023/05/02 19:03:17;;;;;;;10.90;5.77;;;16.10;1.00;;;;;;6338540;22;20223;-77
2023/05/02 19:05:43;;;;;;;11.70;5.50;;;16.10;1.00;;;;;;6313116;22;20147;-79
2023/05/02 19:16:15;;;;;;;7.60;4.40;;;;;;;;;;6300042;22;20455;-79
2023/05/02 19:18:42;;;;;;;7.10;4.50;;;15.70;1.00;;;;;;6302467;22;20486;-80
2023/05/02 19:21:11;;;;;;;6.33;4.47;;;15.60;1.00;;;;;;6304048;22;20445;-77
2023/05/02 19:23:37;;;;;;;6.23;4.20;;;15.50;1.00;;;;;;6303415;22;20369;-80
2023/05/02 19:26:03;;;;;;;9.47;4.27;;;15.50;1.00;;;;;;6274887;22;20901;-77
2023/05/02 19:28:29;;;;;;;7.70;4.73;;;15.30;1.00;;;;;;6275609;22;20381;-77
2023/05/02 19:30:54;;;;;;;5.70;4.20;;;15.30;1.00;;;;;;6302890;22;20294;-77
2023/05/02 19:33:20;;;;;;;8.23;4.50;;;15.20;1.00;;;;;;6302930;22;20143;-77
2023/05/02 19:35:46;;;;;;;5.80;4.40;;;15.20;1.00;;;;;;6303745;22;20201;-77
2023/05/02 19:38:13;;;;;;;7.13;4.80;;;;;;;;;;6303938;22;20218;-78
2023/05/02 19:40:38;;;;;;;11.13;4.70;;;15.10;1.00;;;;;;6305020;22;20369;-77
2023/05/02 19:51:11;;;;;;;6.47;4.63;;;;;;;;;;6299172;22;20467;-77
2023/05/02 20:09:09;;;;;;;7.80;4.73;;;;;;;;;;6271533;22;20441;-79
2023/05/02 20:11:35;;;;;;;10.33;4.70;;;14.30;1.00;;;;;;6275840;22;20487;-79
2023/05/02 20:19:11;;;;;;;8.30;4.80;;;;;;;;;;6272666;22;21441;-79
2023/05/02 20:21:38;;;;;;;7.80;4.90;;;;;;;;;;6305318;22;20400;-78
2023/05/02 20:24:05;;;;;;;5.67;4.40;;;14.10;1.00;;;;;;6334556;22;20221;-79
2023/05/02 20:26:32;;;;;;;6.27;4.57;;;14.10;1.00;;;;;;6334175;22;20377;-78
2023/05/02 20:28:58;;;;;;;6.10;4.90;;;14.00;1.00;;;;;;6305928;22;20733;-79
2023/05/02 20:31:24;;;;;;;5.97;4.80;;;14.00;1.00;;;;;;6334552;22;20416;-79
2023/05/02 20:33:50;;;;;;;6.07;4.60;;;13.90;1.00;;;;;;6334576;22;20214;-78
2023/05/02 20:36:16;;;;;;;8.50;5.20;;;13.90;1.00;;;;;;6335343;22;20404;-80
2023/05/02 20:49:04;;;;;;;7.60;5.33;;;;;;;;;;6294437;22;20917;-77
2023/05/02 20:51:30;;;;;;;7.13;5.10;;;13.60;1.00;;;;;;6302747;22;20432;-76
2023/05/02 21:11:56;;;;;;;7.57;5.13;;;;;;;;;;6274560;22;20457;-77
2023/05/02 21:14:25;;;;;;;7.00;4.90;;;14.50;1.00;;;;;;6272030;22;20815;-76
2023/05/02 21:16:51;;;;;;;7.47;5.40;;;13.00;1.00;;;;;;6270382;22;20851;-77
2023/05/02 21:19:17;;;;;;;8.47;5.33;;;13.00;1.00;;;;;;6270627;22;20379;-77
2023/05/02 21:21:43;;;;;;;10.33;6.43;;;13.00;1.00;;;;;;6270786;22;20766;-77
2023/05/02 21:42:17;;;;;;;8.13;5.40;;;;;;;;;;6275295;22;20455;-79
2023/05/02 21:44:42;;;;;;;7.50;5.47;;;;;;;;;;6333051;22;20353;-79
2023/05/02 21:47:08;;;;;;;11.53;5.57;;;12.50;1.00;;;;;;6333610;22;20143;-79
2023/05/02 22:05:07;;;;;;;7.73;4.60;;;;;;;;;;6284413;22;20448;-78
2023/05/02 22:07:32;;;;;;;6.17;4.73;;;12.20;1.00;;;;;;6301444;22;20358;-81
2023/05/02 22:09:58;;;;;;;5.80;4.43;;;12.20;1.00;;;;;;6301060;22;20376;-79
2023/05/02 22:27:59;;;;;;;7.40;5.60;;;;;;;;;;6278579;22;20524;-78
2023/05/02 22:30:25;;;;;;;7.57;5.77;;;11.80;1.00;;;;;;6301465;22;20718;-81
2023/05/02 22:40:37;;;;;;;6.73;4.60;;;;;;;;;;6309810;22;20446;-79
2023/05/02 22:43:02;;;;;;;7.93;5.10;;;11.50;1.00;;;;;;6333769;22;20349;-79
2023/05/02 22:45:28;;;;;;;6.00;4.87;;;11.50;1.00;;;;;;6333185;22;20170;-81
2023/05/02 23:06:01;;;;;;;9.53;5.40;;;;;;;;;;6286192;22;20449;-80
2023/05/02 23:08:27;;;;;;;7.97;5.43;;;11.20;1.00;;;;;;6303670;22;20368;-79
2023/05/02 23:10:52;;;;;;;8.47;4.80;;;11.20;1.00;;;;;;6303361;22;20409;-78
2023/05/02 23:23:40;;;;;;;7.80;5.37;;;10.80;1.00;;;;;;6288554;22;20720;-78
2023/05/02 23:26:06;;;;;;;7.40;5.23;;;10.60;1.00;;;;;;6277596;22;20378;-79
2023/05/02 23:36:18;;;;;;;9.57;5.50;;;;;;;;;;6333427;22;20443;-81
2023/05/02 23:54:16;;;;;;;9.93;5.80;;;;;;;;;;6270108;22;20436;-78
2023/05/02 23:56:43;;;;;;;9.47;5.60;;;;;;;;;;6276750;22;20948;-78
